sensor_id;sensor_type;location;lat;lon;timestamp;noise_LAeq;noise_LA_min;noise_LA_max;noise_LA01;noise_LA95
67298;Laerm;65443;51.436;5.978;2023-04-06T00:00:04;32.19;28.88;37.00;;
67298;Laerm;65443;51.436;5.978;2023-04-06T00:00:15;61.52;29.64;76.65;;
67298;Laerm;65443;51.436;5.978;2023-04-06T00:00:25;30.57;29.07;31.70;;
67298;Laerm;65443;51.436;5.978;2023-04-06T00:00:36;29.97;28.62;31.18;;
67298;Laerm;65443;51.436;5.978;2023-04-06T00:00:47;29.85;28.65;31.13;;
67298;Laerm;65443;51.436;5.978;2023-04-06T00:00:58;30.07;28.73;32.33;;
67298;Laerm;65443;51.436;5.978;2023-04-06T00:01:08;32.70;28.96;44.68;;
67298;Laerm;65443;51.436;5.978;2023-04-06T00:01:19;31.22;29.13;34.34;;
67298;Laerm;65443;51.436;5.978;2023-04-06T00:01:29;32.55;29.97;35.35;;
67298;Laerm;65443;51.436;5.978;2023-04-06T00:01:40;33.28;30.18;36.98;;
67298;Laerm;65443;51.436;5.978;2023-04-06T00:01:50;33.08;30.64;37.63;;
67298;Laerm;65443;51.436;5.978;2023-04-06T00:02:00;32.70;30.25;35.49;;
67298;Laerm;65443;51.436;5.978;2023-04-06T00:02:11;31.72;29.80;34.47;;
67298;Laerm;65443;51.436;5.978;2023-04-06T00:02:21;30.67;29.13;33.01;;
67298;Laerm;65443;51.436;5.978;2023-04-06T00:02:31;30.26;28.89;31.96;;
67298;Laerm;65443;51.436;5.978;2023-04-06T00:02:41;29.99;28.75;31.31;;
67298;Laerm;65443;51.436;5.978;2023-04-06T00:02:52;29.66;28.66;30.74;;
67298;Laerm;65443;51.436;5.978;2023-04-06T00:03:02;29.66;28.38;32.85;;
67298;Laerm;65443;51.436;5.978;2023-04-06T00:03:13;29.71;28.14;30.93;;
67298;Laerm;65443;51.436;5.978;2023-04-06T00:03:23;29.69;28.50;31.02;;
67298;Laerm;65443;51.436;5.978;2023-04-06T00:03:34;29.54;28.32;30.74;;
67298;Laerm;65443;51.436;5.978;2023-04-06T00:03:44;29.43;28.26;30.78;;
67298;Laerm;65443;51.436;5.978;2023-04-06T00:03:54;29.38;28.22;30.52;;
67298;Laerm;65443;51.436;5.978;2023-04-06T00:04:05;29.64;28.43;31.18;;
67298;Laerm;65443;51.436;5.978;2023-04-06T00:04:16;29.72;28.32;31.41;;
67298;Laerm;65443;51.436;5.978;2023-04-06T00:04:26;29.66;28.33;31.13;;
67298;Laerm;65443;51.436;5.978;2023-04-06T00:04:36;29.75;28.25;31.13;;
67298;Laerm;65443;51.436;5.978;2023-04-06T00:04:47;29.65;28.03;30.94;;
67298;Laerm;65443;51.436;5.978;2023-04-06T00:04:57;29.53;28.15;30.69;;
67298;Laerm;65443;51.436;5.978;2023-04-06T00:05:07;29.65;28.41;30.85;;
67298;Laerm;65443;51.436;5.978;2023-04-06T00:05:18;29.71;28.22;31.01;;
67298;Laerm;65443;51.436;5.978;2023-04-06T00:05:29;29.75;28.20;30.86;;
67298;Laerm;65443;51.436;5.978;2023-04-06T00:05:41;29.76;28.53;31.16;;
67298;Laerm;65443;51.436;5.978;2023-04-06T00:05:51;29.76;28.67;31.02;;
67298;Laerm;65443;51.436;5.978;2023-04-06T00:06:02;30.16;28.55;32.10;;
67298;Laerm;65443;51.436;5.978;2023-04-06T00:06:12;31.10;29.27;32.69;;
67298;Laerm;65443;51.436;5.978;2023-04-06T00:06:23;32.25;30.18;34.92;;
67298;Laerm;65443;51.436;5.978;2023-04-06T00:06:33;31.70;29.29;34.25;;
67298;Laerm;65443;51.436;5.978;2023-04-06T00:06:44;31.99;29.38;36.35;;
67298;Laerm;65443;51.436;5.978;2023-04-06T00:06:54;30.51;28.90;32.33;;
67298;Laerm;65443;51.436;5.978;2023-04-06T00:07:04;30.27;28.78;31.60;;
67298;Laerm;65443;51.436;5.978;2023-04-06T00:07:14;30.10;28.64;31.52;;
67298;Laerm;65443;51.436;5.978;2023-04-06T00:07:25;29.89;28.39;31.07;;
67298;Laerm;65443;51.436;5.978;2023-04-06T00:07:36;30.03;28.69;31.78;;
67298;Laerm;65443;51.436;5.978;2023-04-06T00:07:46;30.01;28.50;31.37;;
67298;Laerm;65443;51.436;5.978;2023-04-06T00:07:57;29.80;28.22;31.09;;
67298;Laerm;65443;51.436;5.978;2023-04-06T00:08:07;29.82;28.34;31.24;;
67298;Laerm;65443;51.436;5.978;2023-04-06T00:08:18;29.70;28.46;30.84;;
67298;Laerm;65443;51.436;5.978;2023-04-06T00:08:28;29.69;28.52;30.88;;
67298;Laerm;65443;51.436;5.978;2023-04-06T00:08:38;29.83;28.37;31.10;;
67298;Laerm;65443;51.436;5.978;2023-04-06T00:08:49;29.60;28.02;30.84;;
67298;Laerm;65443;51.436;5.978;2023-04-06T00:09:00;29.62;28.48;30.83;;
67298;Laerm;65443;51.436;5.978;2023-04-06T00:09:10;29.66;28.45;30.99;;
67298;Laerm;65443;51.436;5.978;2023-04-06T00:09:20;29.85;28.48;31.07;;
67298;Laerm;65443;51.436;5.978;2023-04-06T00:09:31;30.15;28.95;31.52;;
67298;Laerm;65443;51.436;5.978;2023-04-06T00:09:41;30.15;28.90;31.37;;
67298;Laerm;65443;51.436;5.978;2023-04-06T00:09:51;29.73;28.25;31.07;;
67298;Laerm;65443;51.436;5.978;2023-04-06T00:10:02;29.68;28.53;30.88;;
67298;Laerm;65443;51.436;5.978;2023-04-06T00:10:12;29.65;28.39;31.06;;
67298;Laerm;65443;51.436;5.978;2023-04-06T00:10:23;29.86;28.46;32.26;;
67298;Laerm;65443;51.436;5.978;2023-04-06T00:10:33;29.83;27.74;31.15;;
67298;Laerm;65443;51.436;5.978;2023-04-06T00:10:43;29.52;28.22;30.80;;
67298;Laerm;65443;51.436;5.978;2023-04-06T00:10:54;29.68;28.40;31.13;;
67298;Laerm;65443;51.436;5.978;2023-04-06T00:11:05;29.90;28.34;31.26;;
67298;Laerm;65443;51.436;5.978;2023-04-06T00:11:15;29.69;28.23;31.69;;
67298;Laerm;65443;51.436;5.978;2023-04-06T00:11:26;29.86;28.50;31.53;;
67298;Laerm;65443;51.436;5.978;2023-04-06T00:11:37;29.91;28.57;31.61;;
67298;Laerm;65443;51.436;5.978;2023-04-06T00:11:47;30.10;28.77;31.82;;
67298;Laerm;65443;51.436;5.978;2023-04-06T00:11:57;29.95;28.42;31.13;;
67298;Laerm;65443;51.436;5.978;2023-04-06T00:12:08;30.04;28.87;32.30;;
67298;Laerm;65443;51.436;5.978;2023-04-06T00:12:18;30.22;28.72;32.37;;
67298;Laerm;65443;51.436;5.978;2023-04-06T00:12:28;30.14;28.63;31.68;;
67298;Laerm;65443;51.436;5.978;2023-04-06T00:12:39;30.07;28.76;31.73;;
67298;Laerm;65443;51.436;5.978;2023-04-06T00:12:49;30.17;28.60;32.79;;
67298;Laerm;65443;51.436;5.978;2023-04-06T00:13:00;30.26;28.56;32.07;;
67298;Laerm;65443;51.436;5.978;2023-04-06T00:13:10;30.22;28.72;36.16;;
67298;Laerm;65443;51.436;5.978;2023-04-06T00:13:21;29.99;28.15;31.82;;
67298;Laerm;65443;51.436;5.978;2023-04-06T00:13:31;30.12;28.51;31.57;;
67298;Laerm;65443;51.436;5.978;2023-04-06T00:13:41;30.14;28.21;32.15;;
67298;Laerm;65443;51.436;5.978;2023-04-06T00:13:52;30.22;28.78;34.43;;
67298;Laerm;65443;51.436;5.978;2023-04-06T00:14:02;30.22;28.88;33.95;;
67298;Laerm;65443;51.436;5.978;2023-04-06T00:14:13;30.11;28.70;31.54;;
67298;Laerm;65443;51.436;5.978;2023-04-06T00:14:23;30.04;28.40;31.28;;
67298;Laerm;65443;51.436;5.978;2023-04-06T00:14:34;30.13;28.79;31.73;;
67298;Laerm;65443;51.436;5.978;2023-04-06T00:14:44;29.99;28.86;31.13;;
67298;Laerm;65443;51.436;5.978;2023-04-06T00:14:55;30.12;28.97;31.90;;
67298;Laerm;65443;51.436;5.978;2023-04-06T00:15:05;30.09;28.39;32.05;;
67298;Laerm;65443;51.436;5.978;2023-04-06T00:15:16;30.17;28.95;31.42;;
67298;Laerm;65443;51.436;5.978;2023-04-06T00:15:26;30.07;28.74;31.84;;
67298;Laerm;65443;51.436;5.978;2023-04-06T00:15:37;29.95;28.51;31.76;;
67298;Laerm;65443;51.436;5.978;2023-04-06T00:15:47;29.97;28.52;31.42;;
67298;Laerm;65443;51.436;5.978;2023-04-06T00:15:57;30.09;28.32;32.16;;
67298;Laerm;65443;51.436;5.978;2023-04-06T00:16:08;29.93;28.37;31.23;;
67298;Laerm;65443;51.436;5.978;2023-04-06T00:16:19;29.89;28.87;31.52;;
67298;Laerm;65443;51.436;5.978;2023-04-06T00:16:29;29.90;28.61;31.47;;
67298;Laerm;65443;51.436;5.978;2023-04-06T00:16:40;30.05;28.37;31.84;;
67298;Laerm;65443;51.436;5.978;2023-04-06T00:16:50;30.10;28.75;32.03;;
67298;Laerm;65443;51.436;5.978;2023-04-06T00:17:01;29.98;28.44;31.48;;
67298;Laerm;65443;51.436;5.978;2023-04-06T00:17:11;29.98;28.53;31.70;;
67298;Laerm;65443;51.436;5.978;2023-04-06T00:17:22;31.58;28.72;48.35;;
67298;Laerm;65443;51.436;5.978;2023-04-06T00:17:32;31.59;28.68;46.53;;
67298;Laerm;65443;51.436;5.978;2023-04-06T00:17:43;29.96;28.55;31.80;;
67298;Laerm;65443;51.436;5.978;2023-04-06T00:17:53;30.67;28.37;46.51;;
67298;Laerm;65443;51.436;5.978;2023-04-06T00:18:03;29.84;28.72;31.17;;
67298;Laerm;65443;51.436;5.978;2023-04-06T00:18:14;29.98;28.50;35.55;;
67298;Laerm;65443;51.436;5.978;2023-04-06T00:18:24;29.66;28.44;31.10;;
67298;Laerm;65443;51.436;5.978;2023-04-06T00:18:34;29.79;28.71;30.94;;
67298;Laerm;65443;51.436;5.978;2023-04-06T00:18:45;29.78;28.46;31.20;;
67298;Laerm;65443;51.436;5.978;2023-04-06T00:18:56;29.56;27.96;31.08;;
67298;Laerm;65443;51.436;5.978;2023-04-06T00:19:06;29.78;28.37;30.99;;
67298;Laerm;65443;51.436;5.978;2023-04-06T00:19:16;29.78;27.65;31.43;;
67298;Laerm;65443;51.436;5.978;2023-04-06T00:19:27;29.72;27.96;30.87;;
67298;Laerm;65443;51.436;5.978;2023-04-06T00:19:37;29.77;28.48;31.14;;
67298;Laerm;65443;51.436;5.978;2023-04-06T00:19:47;29.84;28.75;31.10;;
67298;Laerm;65443;51.436;5.978;2023-04-06T00:19:58;29.84;28.34;31.35;;
67298;Laerm;65443;51.436;5.978;2023-04-06T00:20:08;29.85;28.79;31.05;;
67298;Laerm;65443;51.436;5.978;2023-04-06T00:20:19;29.90;28.52;32.18;;
67298;Laerm;65443;51.436;5.978;2023-04-06T00:20:29;29.54;28.14;32.66;;
67298;Laerm;65443;51.436;5.978;2023-04-06T00:20:40;29.74;28.73;30.94;;
67298;Laerm;65443;51.436;5.978;2023-04-06T00:20:50;29.87;28.81;30.96;;
67298;Laerm;65443;51.436;5.978;2023-04-06T00:21:01;29.59;28.32;30.94;;
67298;Laerm;65443;51.436;5.978;2023-04-06T00:21:11;29.76;28.22;33.23;;
67298;Laerm;65443;51.436;5.978;2023-04-06T00:21:22;29.79;28.72;30.88;;
67298;Laerm;65443;51.436;5.978;2023-04-06T00:21:33;29.66;28.06;30.95;;
67298;Laerm;65443;51.436;5.978;2023-04-06T00:21:43;30.33;28.78;31.54;;
67298;Laerm;65443;51.436;5.978;2023-04-06T00:21:53;30.41;28.91;31.54;;
67298;Laerm;65443;51.436;5.978;2023-04-06T00:22:04;30.07;28.85;31.13;;
67298;Laerm;65443;51.436;5.978;2023-04-06T00:22:14;29.83;28.70;31.34;;
67298;Laerm;65443;51.436;5.978;2023-04-06T00:22:24;29.76;28.27;31.44;;
67298;Laerm;65443;51.436;5.978;2023-04-06T00:22:35;30.28;28.63;32.41;;
67298;Laerm;65443;51.436;5.978;2023-04-06T00:22:45;30.84;28.95;32.12;;
67298;Laerm;65443;51.436;5.978;2023-04-06T00:22:56;30.73;29.06;32.16;;
67298;Laerm;65443;51.436;5.978;2023-04-06T00:23:06;30.72;29.04;32.16;;
67298;Laerm;65443;51.436;5.978;2023-04-06T00:23:16;30.00;28.50;32.50;;
67298;Laerm;65443;51.436;5.978;2023-04-06T00:23:27;30.71;28.48;40.64;;
67298;Laerm;65443;51.436;5.978;2023-04-06T00:23:37;29.75;28.40;32.12;;
67298;Laerm;65443;51.436;5.978;2023-04-06T00:23:48;29.91;28.42;31.66;;
67298;Laerm;65443;51.436;5.978;2023-04-06T00:23:58;30.51;28.87;32.59;;
67298;Laerm;65443;51.436;5.978;2023-04-06T00:24:08;30.92;29.17;32.79;;
67298;Laerm;65443;51.436;5.978;2023-04-06T00:24:19;30.90;28.57;32.92;;
67298;Laerm;65443;51.436;5.978;2023-04-06T00:24:29;31.01;29.29;33.52;;
67298;Laerm;65443;51.436;5.978;2023-04-06T00:24:40;31.29;29.28;34.74;;
67298;Laerm;65443;51.436;5.978;2023-04-06T00:24:50;31.13;29.30;34.58;;
67298;Laerm;65443;51.436;5.978;2023-04-06T00:25:00;30.94;29.14;33.52;;
67298;Laerm;65443;51.436;5.978;2023-04-06T00:25:11;30.48;28.52;32.58;;
67298;Laerm;65443;51.436;5.978;2023-04-06T00:25:21;30.45;28.60;32.79;;
67298;Laerm;65443;51.436;5.978;2023-04-06T00:25:32;30.28;28.99;32.01;;
67298;Laerm;65443;51.436;5.978;2023-04-06T00:25:42;30.09;28.66;32.00;;
67298;Laerm;65443;51.436;5.978;2023-04-06T00:25:53;29.92;28.52;32.01;;
67298;Laerm;65443;51.436;5.978;2023-04-06T00:26:03;30.00;28.71;31.88;;
67298;Laerm;65443;51.436;5.978;2023-04-06T00:26:13;29.93;28.63;31.50;;
67298;Laerm;65443;51.436;5.978;2023-04-06T00:26:24;30.23;28.92;31.72;;
67298;Laerm;65443;51.436;5.978;2023-04-06T00:26:35;30.09;28.48;31.62;;
67298;Laerm;65443;51.436;5.978;2023-04-06T00:26:45;30.10;28.97;31.85;;
67298;Laerm;65443;51.436;5.978;2023-04-06T00:26:55;29.94;28.67;31.09;;
67298;Laerm;65443;51.436;5.978;2023-04-06T00:27:06;30.23;28.28;31.72;;
67298;Laerm;65443;51.436;5.978;2023-04-06T00:27:16;30.08;28.70;32.59;;
67298;Laerm;65443;51.436;5.978;2023-04-06T00:27:26;29.95;28.08;32.14;;
67298;Laerm;65443;51.436;5.978;2023-04-06T00:27:37;29.74;28.43;31.57;;
67298;Laerm;65443;51.436;5.978;2023-04-06T00:27:48;30.01;28.62;31.85;;
67298;Laerm;65443;51.436;5.978;2023-04-06T00:27:58;30.26;29.09;32.38;;
67298;Laerm;65443;51.436;5.978;2023-04-06T00:28:08;30.76;29.19;32.44;;
67298;Laerm;65443;51.436;5.978;2023-04-06T00:28:19;35.44;30.80;38.90;;
67298;Laerm;65443;51.436;5.978;2023-04-06T00:28:35;33.23;30.11;40.47;;
67298;Laerm;65443;51.436;5.978;2023-04-06T00:28:45;30.93;29.62;32.24;;
67298;Laerm;65443;51.436;5.978;2023-04-06T00:28:56;30.19;28.35;31.48;;
67298;Laerm;65443;51.436;5.978;2023-04-06T00:29:06;30.47;28.71;32.15;;
67298;Laerm;65443;51.436;5.978;2023-04-06T00:29:16;30.98;29.53;33.79;;
67298;Laerm;65443;51.436;5.978;2023-04-06T00:29:27;32.07;30.31;34.55;;
67298;Laerm;65443;51.436;5.978;2023-04-06T00:29:37;30.88;28.98;33.58;;
67298;Laerm;65443;51.436;5.978;2023-04-06T00:29:48;30.39;28.52;32.04;;
67298;Laerm;65443;51.436;5.978;2023-04-06T00:29:59;30.11;28.24;31.67;;
67298;Laerm;65443;51.436;5.978;2023-04-06T00:30:09;29.99;28.68;31.83;;
67298;Laerm;65443;51.436;5.978;2023-04-06T00:30:20;30.15;28.78;31.73;;
67298;Laerm;65443;51.436;5.978;2023-04-06T00:30:30;30.27;28.78;32.42;;
67298;Laerm;65443;51.436;5.978;2023-04-06T00:30:40;30.52;29.38;31.86;;
67298;Laerm;65443;51.436;5.978;2023-04-06T00:30:51;30.03;28.66;32.06;;
67298;Laerm;65443;51.436;5.978;2023-04-06T00:31:05;55.51;28.60;73.76;;
67298;Laerm;65443;51.436;5.978;2023-04-06T00:31:15;37.26;29.20;47.92;;
67298;Laerm;65443;51.436;5.978;2023-04-06T00:31:26;30.61;29.10;32.32;;
67298;Laerm;65443;51.436;5.978;2023-04-06T00:31:36;30.70;29.18;32.58;;
67298;Laerm;65443;51.436;5.978;2023-04-06T00:31:46;30.39;28.85;31.48;;
67298;Laerm;65443;51.436;5.978;2023-04-06T00:31:57;30.12;28.96;31.91;;
67298;Laerm;65443;51.436;5.978;2023-04-06T00:32:07;30.10;28.89;31.54;;
67298;Laerm;65443;51.436;5.978;2023-04-06T00:32:18;30.10;28.30;31.86;;
67298;Laerm;65443;51.436;5.978;2023-04-06T00:32:28;30.82;29.15;32.31;;
67298;Laerm;65443;51.436;5.978;2023-04-06T00:32:38;30.28;28.64;31.63;;
67298;Laerm;65443;51.436;5.978;2023-04-06T00:32:49;30.46;28.93;32.08;;
67298;Laerm;65443;51.436;5.978;2023-04-06T00:33:00;33.50;29.45;37.41;;
67298;Laerm;65443;51.436;5.978;2023-04-06T00:33:10;41.06;35.66;44.15;;
67298;Laerm;65443;51.436;5.978;2023-04-06T00:33:21;58.07;40.25;67.92;;
67298;Laerm;65443;51.436;5.978;2023-04-06T00:33:32;62.70;35.54;74.50;;
67298;Laerm;65443;51.436;5.978;2023-04-06T00:33:42;34.59;32.56;36.93;;
67298;Laerm;65443;51.436;5.978;2023-04-06T00:33:52;35.19;31.72;38.45;;
67298;Laerm;65443;51.436;5.978;2023-04-06T00:34:03;31.40;29.37;33.43;;
67298;Laerm;65443;51.436;5.978;2023-04-06T00:34:13;30.11;28.88;31.63;;
67298;Laerm;65443;51.436;5.978;2023-04-06T00:34:25;29.95;28.74;31.95;;
67298;Laerm;65443;51.436;5.978;2023-04-06T00:34:36;29.82;28.41;31.64;;
67298;Laerm;65443;51.436;5.978;2023-04-06T00:34:46;29.82;28.22;32.65;;
67298;Laerm;65443;51.436;5.978;2023-04-06T00:34:57;32.60;28.39;47.51;;
67298;Laerm;65443;51.436;5.978;2023-04-06T00:35:08;30.72;28.67;42.61;;
67298;Laerm;65443;51.436;5.978;2023-04-06T00:35:18;29.70;28.41;30.88;;
67298;Laerm;65443;51.436;5.978;2023-04-06T00:35:28;30.09;28.56;34.38;;
67298;Laerm;65443;51.436;5.978;2023-04-06T00:35:39;29.87;28.79;31.33;;
67298;Laerm;65443;51.436;5.978;2023-04-06T00:35:50;29.89;28.32;31.43;;
67298;Laerm;65443;51.436;5.978;2023-04-06T00:36:00;29.73;28.21;31.05;;
67298;Laerm;65443;51.436;5.978;2023-04-06T00:36:10;29.76;28.46;31.05;;
67298;Laerm;65443;51.436;5.978;2023-04-06T00:36:21;29.85;28.60;32.39;;
67298;Laerm;65443;51.436;5.978;2023-04-06T00:36:31;30.18;28.84;38.21;;
67298;Laerm;65443;51.436;5.978;2023-04-06T00:36:42;30.43;29.00;32.66;;
67298;Laerm;65443;51.436;5.978;2023-04-06T00:36:52;35.61;31.40;39.01;;
67298;Laerm;65443;51.436;5.978;2023-04-06T00:37:02;35.79;32.95;38.27;;
67298;Laerm;65443;51.436;5.978;2023-04-06T00:37:13;56.78;36.10;64.41;;
67298;Laerm;65443;51.436;5.978;2023-04-06T00:37:23;58.65;37.21;66.09;;
67298;Laerm;65443;51.436;5.978;2023-04-06T00:37:33;34.99;31.15;39.28;;
67298;Laerm;65443;51.436;5.978;2023-04-06T00:37:45;31.95;30.28;33.26;;
67298;Laerm;65443;51.436;5.978;2023-04-06T00:37:56;30.75;29.05;32.39;;
67298;Laerm;65443;51.436;5.978;2023-04-06T00:38:06;30.05;28.51;32.12;;
67298;Laerm;65443;51.436;5.978;2023-04-06T00:38:17;29.98;28.66;31.73;;
67298;Laerm;65443;51.436;5.978;2023-04-06T00:38:27;30.47;28.33;35.74;;
67298;Laerm;65443;51.436;5.978;2023-04-06T00:38:38;30.27;28.63;32.68;;
67298;Laerm;65443;51.436;5.978;2023-04-06T00:38:48;30.33;28.50;32.45;;
67298;Laerm;65443;51.436;5.978;2023-04-06T00:38:58;30.60;29.08;33.11;;
67298;Laerm;65443;51.436;5.978;2023-04-06T00:39:09;30.03;28.69;31.97;;
67298;Laerm;65443;51.436;5.978;2023-04-06T00:39:20;31.78;28.75;47.57;;
67298;Laerm;65443;51.436;5.978;2023-04-06T00:39:30;29.82;28.59;31.53;;
67298;Laerm;65443;51.436;5.978;2023-04-06T00:39:40;30.76;28.62;46.47;;
67298;Laerm;65443;51.436;5.978;2023-04-06T00:39:51;29.69;28.34;30.79;;
67298;Laerm;65443;51.436;5.978;2023-04-06T00:40:01;29.82;28.52;31.60;;
67298;Laerm;65443;51.436;5.978;2023-04-06T00:40:12;29.81;28.49;31.10;;
67298;Laerm;65443;51.436;5.978;2023-04-06T00:40:22;29.94;28.64;31.31;;
67298;Laerm;65443;51.436;5.978;2023-04-06T00:40:33;30.00;28.52;31.66;;
67298;Laerm;65443;51.436;5.978;2023-04-06T00:40:44;29.70;28.55;30.85;;
67298;Laerm;65443;51.436;5.978;2023-04-06T00:40:55;30.18;28.84;31.68;;
67298;Laerm;65443;51.436;5.978;2023-04-06T00:41:06;30.78;28.74;33.93;;
67298;Laerm;65443;51.436;5.978;2023-04-06T00:41:17;30.67;28.49;32.81;;
67298;Laerm;65443;51.436;5.978;2023-04-06T00:41:27;29.59;28.27;31.09;;
67298;Laerm;65443;51.436;5.978;2023-04-06T00:41:38;29.95;28.10;34.61;;
67298;Laerm;65443;51.436;5.978;2023-04-06T00:41:50;29.82;28.57;31.58;;
67298;Laerm;65443;51.436;5.978;2023-04-06T00:42:03;29.68;28.36;31.38;;
67298;Laerm;65443;51.436;5.978;2023-04-06T00:42:17;29.46;28.24;30.59;;
67298;Laerm;65443;51.436;5.978;2023-04-06T00:42:35;29.53;28.14;31.10;;
67298;Laerm;65443;51.436;5.978;2023-04-06T00:42:45;29.41;27.85;30.55;;
67298;Laerm;65443;51.436;5.978;2023-04-06T00:42:56;29.61;28.54;31.13;;
67298;Laerm;65443;51.436;5.978;2023-04-06T00:43:06;29.66;28.60;30.74;;
67298;Laerm;65443;51.436;5.978;2023-04-06T00:43:17;29.60;28.08;30.95;;
67298;Laerm;65443;51.436;5.978;2023-04-06T00:43:27;29.57;28.35;31.42;;
67298;Laerm;65443;51.436;5.978;2023-04-06T00:43:37;29.58;28.19;30.82;;
67298;Laerm;65443;51.436;5.978;2023-04-06T00:43:48;29.59;28.25;30.76;;
67298;Laerm;65443;51.436;5.978;2023-04-06T00:43:58;29.63;28.38;30.82;;
67298;Laerm;65443;51.436;5.978;2023-04-06T00:44:08;29.55;28.34;30.99;;
67298;Laerm;65443;51.436;5.978;2023-04-06T00:44:19;29.64;28.45;30.88;;
67298;Laerm;65443;51.436;5.978;2023-04-06T00:44:30;29.69;28.44;31.48;;
67298;Laerm;65443;51.436;5.978;2023-04-06T00:44:42;29.71;28.26;32.90;;
67298;Laerm;65443;51.436;5.978;2023-04-06T00:44:56;29.74;28.77;31.22;;
67298;Laerm;65443;51.436;5.978;2023-04-06T00:45:06;29.59;28.32;31.02;;
67298;Laerm;65443;51.436;5.978;2023-04-06T00:45:17;29.93;28.63;32.96;;
67298;Laerm;65443;51.436;5.978;2023-04-06T00:45:28;29.71;28.14;30.94;;
67298;Laerm;65443;51.436;5.978;2023-04-06T00:45:38;29.56;28.17;31.10;;
67298;Laerm;65443;51.436;5.978;2023-04-06T00:45:49;29.50;28.09;30.99;;
67298;Laerm;65443;51.436;5.978;2023-04-06T00:45:59;29.56;28.38;31.26;;
67298;Laerm;65443;51.436;5.978;2023-04-06T00:46:10;29.70;28.12;31.11;;
67298;Laerm;65443;51.436;5.978;2023-04-06T00:46:20;29.76;28.41;30.99;;
67298;Laerm;65443;51.436;5.978;2023-04-06T00:46:30;29.75;28.45;31.06;;
67298;Laerm;65443;51.436;5.978;2023-04-06T00:46:41;29.79;28.52;31.23;;
67298;Laerm;65443;51.436;5.978;2023-04-06T00:46:51;29.77;28.47;31.11;;
67298;Laerm;65443;51.436;5.978;2023-04-06T00:47:01;29.81;28.50;31.79;;
67298;Laerm;65443;51.436;5.978;2023-04-06T00:47:12;29.73;28.21;31.17;;
67298;Laerm;65443;51.436;5.978;2023-04-06T00:47:23;29.76;28.25;31.15;;
67298;Laerm;65443;51.436;5.978;2023-04-06T00:47:35;29.83;28.23;31.18;;
67298;Laerm;65443;51.436;5.978;2023-04-06T00:47:45;29.78;28.35;31.28;;
67298;Laerm;65443;51.436;5.978;2023-04-06T00:47:55;29.64;28.00;31.25;;
67298;Laerm;65443;51.436;5.978;2023-04-06T00:48:06;29.65;28.41;31.12;;
67298;Laerm;65443;51.436;5.978;2023-04-06T00:48:17;29.65;27.76;31.29;;
67298;Laerm;65443;51.436;5.978;2023-04-06T00:48:27;29.76;28.40;31.04;;
67298;Laerm;65443;51.436;5.978;2023-04-06T00:48:37;29.65;27.82;31.17;;
67298;Laerm;65443;51.436;5.978;2023-04-06T00:48:49;29.60;28.08;31.07;;
67298;Laerm;65443;51.436;5.978;2023-04-06T00:48:59;29.63;28.18;31.03;;
67298;Laerm;65443;51.436;5.978;2023-04-06T00:49:09;29.64;28.19;31.22;;
67298;Laerm;65443;51.436;5.978;2023-04-06T00:49:20;29.81;28.59;31.01;;
67298;Laerm;65443;51.436;5.978;2023-04-06T00:49:31;29.64;28.19;30.89;;
67298;Laerm;65443;51.436;5.978;2023-04-06T00:49:42;29.63;27.92;30.85;;
67298;Laerm;65443;51.436;5.978;2023-04-06T00:49:52;29.70;28.52;31.27;;
67298;Laerm;65443;51.436;5.978;2023-04-06T00:50:03;29.88;28.66;31.60;;
67298;Laerm;65443;51.436;5.978;2023-04-06T00:50:14;29.67;28.31;30.67;;
67298;Laerm;65443;51.436;5.978;2023-04-06T00:50:24;29.60;28.56;31.01;;
67298;Laerm;65443;51.436;5.978;2023-04-06T00:50:35;29.53;28.18;30.78;;
67298;Laerm;65443;51.436;5.978;2023-04-06T00:50:45;29.55;28.27;31.73;;
67298;Laerm;65443;51.436;5.978;2023-04-06T00:50:56;29.69;27.98;30.98;;
67298;Laerm;65443;51.436;5.978;2023-04-06T00:51:07;29.58;28.31;30.89;;
67298;Laerm;65443;51.436;5.978;2023-04-06T00:51:17;29.81;28.43;31.06;;
67298;Laerm;65443;51.436;5.978;2023-04-06T00:51:28;30.19;28.70;31.96;;
67298;Laerm;65443;51.436;5.978;2023-04-06T00:51:38;30.27;28.85;31.60;;
67298;Laerm;65443;51.436;5.978;2023-04-06T00:51:48;30.07;28.45;32.35;;
67298;Laerm;65443;51.436;5.978;2023-04-06T00:51:59;30.03;28.53;31.82;;
67298;Laerm;65443;51.436;5.978;2023-04-06T00:52:10;29.92;28.41;32.00;;
67298;Laerm;65443;51.436;5.978;2023-04-06T00:52:20;29.63;27.93;30.98;;
67298;Laerm;65443;51.436;5.978;2023-04-06T00:52:31;29.40;28.06;31.24;;
67298;Laerm;65443;51.436;5.978;2023-04-06T00:52:41;29.65;28.51;30.99;;
67298;Laerm;65443;51.436;5.978;2023-04-06T00:52:52;29.73;28.54;31.53;;
67298;Laerm;65443;51.436;5.978;2023-04-06T00:53:03;30.05;28.49;31.69;;
67298;Laerm;65443;51.436;5.978;2023-04-06T00:53:13;29.98;28.52;31.26;;
67298;Laerm;65443;51.436;5.978;2023-04-06T00:53:23;30.16;28.38;40.57;;
67298;Laerm;65443;51.436;5.978;2023-04-06T00:53:34;29.82;28.39;31.26;;
67298;Laerm;65443;51.436;5.978;2023-04-06T00:53:44;29.65;28.40;31.35;;
67298;Laerm;65443;51.436;5.978;2023-04-06T00:53:56;29.57;28.41;31.67;;
67298;Laerm;65443;51.436;5.978;2023-04-06T00:54:06;29.64;28.40;31.11;;
67298;Laerm;65443;51.436;5.978;2023-04-06T00:54:16;29.59;28.20;30.95;;
67298;Laerm;65443;51.436;5.978;2023-04-06T00:54:27;29.56;28.16;31.16;;
67298;Laerm;65443;51.436;5.978;2023-04-06T00:54:37;29.65;27.81;31.07;;
67298;Laerm;65443;51.436;5.978;2023-04-06T00:54:48;29.70;28.37;31.11;;
67298;Laerm;65443;51.436;5.978;2023-04-06T00:54:59;29.69;28.62;31.04;;
67298;Laerm;65443;51.436;5.978;2023-04-06T00:55:09;29.59;28.23;30.77;;
67298;Laerm;65443;51.436;5.978;2023-04-06T00:55:20;29.90;28.34;31.98;;
67298;Laerm;65443;51.436;5.978;2023-04-06T00:55:30;29.86;28.51;31.85;;
67298;Laerm;65443;51.436;5.978;2023-04-06T00:55:41;29.76;28.58;31.22;;
67298;Laerm;65443;51.436;5.978;2023-04-06T00:55:51;29.95;28.43;31.59;;
67298;Laerm;65443;51.436;5.978;2023-04-06T00:56:01;29.90;28.37;31.10;;
67298;Laerm;65443;51.436;5.978;2023-04-06T00:56:12;29.88;28.58;30.86;;
67298;Laerm;65443;51.436;5.978;2023-04-06T00:56:22;30.07;28.59;32.30;;
67298;Laerm;65443;51.436;5.978;2023-04-06T00:56:33;30.06;28.54;31.33;;
67298;Laerm;65443;51.436;5.978;2023-04-06T00:56:44;29.92;28.59;31.77;;
67298;Laerm;65443;51.436;5.978;2023-04-06T00:56:55;29.87;28.53;31.30;;
67298;Laerm;65443;51.436;5.978;2023-04-06T00:57:05;29.76;28.48;30.94;;
67298;Laerm;65443;51.436;5.978;2023-04-06T00:57:16;29.54;28.37;31.34;;
67298;Laerm;65443;51.436;5.978;2023-04-06T00:57:26;29.82;28.44;31.51;;
67298;Laerm;65443;51.436;5.978;2023-04-06T00:57:37;30.64;29.07;32.21;;
67298;Laerm;65443;51.436;5.978;2023-04-06T00:57:47;31.22;28.40;32.94;;
67298;Laerm;65443;51.436;5.978;2023-04-06T00:57:58;29.66;28.30;30.92;;
67298;Laerm;65443;51.436;5.978;2023-04-06T00:58:10;29.93;28.16;31.86;;
67298;Laerm;65443;51.436;5.978;2023-04-06T00:58:20;31.78;28.52;37.54;;
67298;Laerm;65443;51.436;5.978;2023-04-06T00:58:30;29.94;28.23;32.84;;
67298;Laerm;65443;51.436;5.978;2023-04-06T00:58:41;29.59;28.57;31.31;;
67298;Laerm;65443;51.436;5.978;2023-04-06T00:58:51;29.58;28.44;31.48;;
67298;Laerm;65443;51.436;5.978;2023-04-06T00:59:02;29.51;28.33;31.22;;
67298;Laerm;65443;51.436;5.978;2023-04-06T00:59:12;29.52;28.07;31.05;;